You are not logged in, Click here to log in
高雄國際機場KHH / RCKH 中華民國高雄市小港區中山四路2號
ICAO: RCKH Country: 中華民國高雄市小港區中山四路2號
Latitude: 22.5746 Longitude: 120.345
Total Arrivals: 471 Total Departures: 543
Latest Arrival: BR830 (VMMC-RCKH)Lun. Wang Latest Departure: KA443 (RCKH-VHHH)Lun. Wang
Scenery:
METAR : RCKH 131130Z 01004KT 320V050 9999 FEW018 22/13 Q1021 NOSIG RMK A3015

高雄國際機場KHH

You are accessing this site from IP address 100.26.176.182. Virtual Airline. CMS by phpVMS.Website designed by Zumeweb and edited by Theo Bearman.
There is 0 User(s) Online: | and 4 Guest(s) Online.
All information on this site is for fight simulation purposes only. This site is for flight logging for pilots of Virtual Airline&模擬飛行論壇 FlySim only.